Time;durP1;ratioP1;P1;durP2;ratioP2;P2;SDS_P1;SDS_P2;PMS_P1;PMS_P2;Temp;Humidity;BMP_temperature;BMP_pressure;BME280_temperature;BME280_humidity;BME280_pressure;Samples;Min_cycle;Max_cycle;Signal;HPM_P1;HPM_P2
2022/07/25 00:01:01;;;;;;;24.10;13.10;;;19.00;99.90;;;;;;5093305;28;20191;-69
2022/07/25 00:03:29;;;;;;;22.27;12.90;;;19.20;99.90;;;;;;5092850;28;20191;-69
2022/07/25 00:05:56;;;;;;;22.33;12.50;;;19.20;99.90;;;;;;5093213;28;20631;-69
2022/07/25 00:08:23;;;;;;;16.10;10.67;;;19.10;99.90;;;;;;5100866;28;20191;-68
2022/07/25 00:10:51;;;;;;;18.57;11.17;;;19.10;99.90;;;;;;5094946;28;20252;-71
2022/07/25 00:13:18;;;;;;;22.63;13.00;;;18.90;99.90;;;;;;5093169;28;20223;-70
2022/07/25 00:15:45;;;;;;;22.97;13.03;;;18.60;99.90;;;;;;5093027;28;20177;-70
2022/07/25 00:18:13;;;;;;;18.73;11.67;;;18.70;99.90;;;;;;5095448;28;20205;-71
2022/07/25 00:20:40;;;;;;;24.57;14.63;;;19.30;99.90;;;;;;5092986;28;20353;-70
2022/07/25 00:23:07;;;;;;;27.40;15.60;;;19.00;99.90;;;;;;5092704;28;20552;-72
2022/07/25 00:25:35;;;;;;;24.27;15.33;;;19.20;99.90;;;;;;5074394;28;20182;-69
2022/07/25 00:28:02;;;;;;;23.60;10.63;;;20.00;99.90;;;;;;5094132;28;20191;-70
2022/07/25 00:30:29;;;;;;;17.97;10.33;;;20.20;99.90;;;;;;5108329;28;20210;-70
2022/07/25 00:32:57;;;;;;;15.50;9.70;;;20.40;99.90;;;;;;5092293;28;20213;-71
2022/07/25 00:35:24;;;;;;;15.73;9.73;;;20.80;99.90;;;;;;5092509;28;20185;-70
2022/07/25 00:37:52;;;;;;;14.57;9.43;;;21.30;99.90;;;;;;5092309;28;20179;-71
2022/07/25 00:40:19;;;;;;;14.30;9.57;;;21.30;99.90;;;;;;5092868;28;20190;-70
2022/07/25 00:42:47;;;;;;;11.40;8.27;;;21.60;99.90;;;;;;5073309;28;20187;-71
2022/07/25 00:45:14;;;;;;;12.47;7.27;;;21.50;99.90;;;;;;5092423;28;20175;-71
2022/07/25 00:47:42;;;;;;;11.57;7.40;;;21.00;99.90;;;;;;5092387;28;20742;-70
2022/07/25 00:50:09;;;;;;;12.00;6.70;;;21.20;99.90;;;;;;5092287;28;20179;-71
2022/07/25 00:52:36;;;;;;;8.10;5.83;;;21.60;99.90;;;;;;5096258;28;20228;-70
2022/07/25 00:55:04;;;;;;;13.97;6.10;;;22.10;99.90;;;;;;5112820;28;20189;-69
2022/07/25 00:57:32;;;;;;;12.73;6.23;;;21.90;99.90;;;;;;5086978;28;20191;-71
2022/07/25 00:59:59;;;;;;;11.40;5.93;;;22.10;99.90;;;;;;5108030;28;20646;-71
2022/07/25 01:02:26;;;;;;;10.23;6.27;;;22.00;99.90;;;;;;5091839;28;20230;-71
2022/07/25 01:04:55;;;;;;;8.13;3.40;;;21.80;99.90;;;;;;5091663;28;20348;-70
2022/07/25 01:07:24;;;;;;;6.80;3.73;;;21.90;99.90;;;;;;5091855;28;20262;-69
2022/07/25 01:09:55;;;;;;;6.20;3.83;;;22.30;99.90;;;;;;5091814;28;20213;-69
2022/07/25 01:12:22;;;;;;;6.70;3.13;;;21.90;99.90;;;;;;5097096;28;20214;-71
2022/07/25 01:14:50;;;;;;;4.27;2.70;;;22.00;99.90;;;;;;5093513;28;20183;-71
2022/07/25 01:17:17;;;;;;;5.90;2.73;;;22.00;99.90;;;;;;5088108;28;20593;-70
2022/07/25 01:19:46;;;;;;;3.57;2.20;;;22.20;99.90;;;;;;5078919;28;20670;-69
2022/07/25 01:22:14;;;;;;;4.40;2.03;;;21.90;99.90;;;;;;5087811;28;20186;-71
2022/07/25 01:24:41;;;;;;;5.00;2.37;;;21.70;99.90;;;;;;5092003;28;20170;-70
2022/07/25 01:27:10;;;;;;;4.83;2.70;;;21.50;99.90;;;;;;5091786;28;20178;-69
2022/07/25 01:29:39;;;;;;;5.23;2.63;;;21.30;99.90;;;;;;5091943;28;20540;-69
2022/07/25 01:32:06;;;;;;;4.50;2.27;;;21.20;99.90;;;;;;5073705;28;20249;-69
2022/07/25 01:34:36;;;;;;;11.33;4.17;;;21.40;99.90;;;;;;5091772;28;20182;-68
2022/07/25 01:37:03;;;;;;;8.43;4.13;;;21.20;99.90;;;;;;5091191;28;20542;-70
2022/07/25 01:39:31;;;;;;;8.03;4.50;;;21.20;99.90;;;;;;5073214;28;20201;-70
2022/07/25 01:42:01;;;;;;;6.07;4.13;;;21.80;99.90;;;;;;5091753;28;20187;-69
2022/07/25 01:44:28;;;;;;;5.00;3.20;;;22.20;99.90;;;;;;5073424;28;20193;-70
2022/07/25 01:46:55;;;;;;;7.50;3.67;;;22.50;99.90;;;;;;5091667;28;20195;-69
2022/07/25 01:49:25;;;;;;;7.23;4.97;;;22.90;99.90;;;;;;5090818;28;20190;-68
2022/07/25 01:51:55;;;;;;;14.73;7.43;;;23.60;99.90;;;;;;5071474;28;20207;-70
2022/07/25 01:54:23;;;;;;;12.57;6.87;;;23.70;99.90;;;;;;5073156;28;20605;-69
2022/07/25 01:56:50;;;;;;;11.07;7.07;;;23.30;99.90;;;;;;5102163;28;20282;-70
2022/07/25 01:59:21;;;;;;;15.67;7.30;;;22.90;99.90;;;;;;5095866;28;20269;-71
2022/07/25 02:01:49;;;;;;;12.87;6.20;;;22.60;99.90;;;;;;5111363;28;20194;-71
2022/07/25 02:04:16;;;;;;;20.07;6.00;;;22.50;99.90;;;;;;5095589;28;20179;-70
2022/07/25 02:06:43;;;;;;;10.30;4.57;;;22.30;99.90;;;;;;5094964;28;20194;-72
2022/07/25 02:09:11;;;;;;;9.67;4.17;;;22.50;99.90;;;;;;5095832;28;20220;-69
2022/07/25 02:11:38;;;;;;;8.30;4.07;;;22.10;99.90;;;;;;5094901;28;20271;-69
2022/07/25 02:14:07;;;;;;;8.53;3.97;;;22.10;99.90;;;;;;5077682;28;20265;-68
2022/07/25 02:16:36;;;;;;;8.80;3.60;;;21.80;99.90;;;;;;5095337;28;20178;-70
2022/07/25 02:19:04;;;;;;;8.23;3.60;;;21.50;99.90;;;;;;5095585;28;20176;-70
2022/07/25 02:21:36;;;;;;;6.30;3.00;;;21.50;99.90;;;;;;5110819;28;20189;-70
2022/07/25 02:24:04;;;;;;;8.37;3.60;;;21.40;99.90;;;;;;5095712;28;20540;-70
2022/07/25 02:26:32;;;;;;;6.70;3.33;;;21.20;99.90;;;;;;5119363;27;20601;-70
2022/07/25 02:29:02;;;;;;;7.23;3.97;;;21.30;99.90;;;;;;5125071;27;20191;-70
2022/07/25 02:31:29;;;;;;;6.90;3.33;;;21.40;99.90;;;;;;5097018;28;20238;-70
2022/07/25 02:33:59;;;;;;;6.67;2.80;;;21.50;99.90;;;;;;5107509;28;20244;-71
2022/07/25 02:36:27;;;;;;;4.43;2.23;;;21.70;99.90;;;;;;5094810;28;20185;-71
2022/07/25 02:38:54;;;;;;;4.97;2.20;;;21.80;99.90;;;;;;5095346;28;20179;-72
2022/07/25 02:41:21;;;;;;;1.70;1.23;;;21.80;99.90;;;;;;5095173;28;20179;-71
2022/07/25 02:43:49;;;;;;;2.83;1.57;;;20.70;99.90;;;;;;5094497;28;20194;-71
2022/07/25 02:46:16;;;;;;;2.20;1.00;;;21.10;99.90;;;;;;5095046;28;20218;-70
2022/07/25 02:48:43;;;;;;;3.17;1.50;;;21.30;99.90;;;;;;5094635;28;20187;-70
2022/07/25 02:51:11;;;;;;;2.40;1.53;;;21.40;99.90;;;;;;5094881;28;20548;-68
2022/07/25 02:53:38;;;;;;;3.13;1.17;;;21.50;99.90;;;;;;5094980;28;20179;-70
2022/07/25 02:56:06;;;;;;;3.67;1.50;;;21.50;99.90;;;;;;5094880;28;20206;-70
2022/07/25 02:58:37;;;;;;;7.33;1.70;;;21.70;99.90;;;;;;5076427;28;20213;-70
2022/07/25 03:01:04;;;;;;;2.63;1.27;;;22.00;99.90;;;;;;5076805;28;20539;-71
2022/07/25 03:03:32;;;;;;;2.37;1.00;;;21.90;99.90;;;;;;5094684;28;20186;-71
2022/07/25 03:06:00;;;;;;;3.53;1.30;;;21.30;99.90;;;;;;5093799;28;20169;-70
2022/07/25 03:08:27;;;;;;;1.10;0.90;;;21.40;99.90;;;;;;5094684;28;20175;-70
2022/07/25 03:10:55;;;;;;;3.10;1.10;;;21.70;99.90;;;;;;5094759;28;20194;-71
2022/07/25 03:13:24;;;;;;;2.27;1.03;;;21.40;99.90;;;;;;5094436;28;20325;-70
2022/07/25 03:15:52;;;;;;;3.10;1.17;;;21.70;99.90;;;;;;5075928;28;20206;-70
2022/07/25 03:18:19;;;;;;;2.97;1.40;;;21.60;99.90;;;;;;5094532;28;20175;-69
2022/07/25 03:20:46;;;;;;;4.50;1.60;;;21.50;99.90;;;;;;5089613;28;20191;-70
2022/07/25 03:23:14;;;;;;;4.30;1.50;;;21.70;99.90;;;;;;5094615;28;20532;-70
2022/07/25 03:25:41;;;;;;;2.20;0.80;;;21.90;99.90;;;;;;5094748;28;20174;-71
2022/07/25 03:28:08;;;;;;;6.27;1.10;;;21.80;99.90;;;;;;5095143;28;20185;-70
2022/07/25 03:30:39;;;;;;;5.23;1.87;;;21.60;99.90;;;;;;5076472;28;20723;-69
2022/07/25 03:33:06;;;;;;;5.37;2.93;;;21.80;99.90;;;;;;5095357;28;20267;-71
2022/07/25 03:35:36;;;;;;;7.90;3.07;;;21.60;99.90;;;;;;5111247;28;20183;-71
2022/07/25 03:38:04;;;;;;;2.67;1.70;;;21.30;99.90;;;;;;5095760;28;20185;-69
2022/07/25 03:40:33;;;;;;;2.10;0.83;;;21.10;99.90;;;;;;5076991;28;20295;-69
2022/07/25 03:43:00;;;;;;;1.93;1.30;;;20.90;99.90;;;;;;5042675;28;20199;-70
2022/07/25 03:45:29;;;;;;;4.10;1.03;;;21.10;99.90;;;;;;5092279;28;20251;-70
2022/07/25 03:48:00;;;;;;;4.57;2.20;;;21.30;99.90;;;;;;5097034;28;20200;-70
2022/07/25 03:50:27;;;;;;;1.40;0.80;;;21.10;99.90;;;;;;5088601;28;20208;-72
2022/07/25 03:52:55;;;;;;;1.40;0.63;;;20.90;99.90;;;;;;5073481;28;20290;-70
2022/07/25 03:55:22;;;;;;;1.40;0.90;;;21.00;99.90;;;;;;5073850;28;20188;-70
2022/07/25 03:57:50;;;;;;;3.13;0.80;;;21.10;99.90;;;;;;5073729;28;20180;-69
2022/07/25 04:00:17;;;;;;;1.90;1.30;;;21.20;99.90;;;;;;5073170;28;20179;-70
2022/07/25 04:02:45;;;;;;;0.97;0.70;;;21.30;99.90;;;;;;5073152;28;20187;-69
2022/07/25 04:05:12;;;;;;;1.87;1.07;;;21.80;99.90;;;;;;5073109;28;20174;-69
2022/07/25 04:07:39;;;;;;;2.73;1.00;;;21.80;99.90;;;;;;5073073;28;20238;-70
2022/07/25 04:10:08;;;;;;;1.83;0.97;;;21.40;99.90;;;;;;5055473;28;20180;-69
2022/07/25 04:12:36;;;;;;;1.77;1.07;;;21.00;99.90;;;;;;5084927;28;20306;-70
2022/07/25 04:15:04;;;;;;;2.47;1.17;;;20.60;99.90;;;;;;5093301;28;20171;-70
2022/07/25 04:17:31;;;;;;;4.93;1.20;;;21.00;99.90;;;;;;5092885;28;20188;-70
2022/07/25 04:19:58;;;;;;;1.80;0.80;;;20.90;99.90;;;;;;5083644;28;20229;-69
2022/07/25 04:22:26;;;;;;;1.93;0.90;;;21.20;99.90;;;;;;5093352;28;20173;-70
2022/07/25 04:24:53;;;;;;;1.40;0.73;;;21.30;99.90;;;;;;5092965;28;20177;-70
2022/07/25 04:27:21;;;;;;;3.17;1.10;;;21.70;99.90;;;;;;5092497;28;20714;-69
2022/07/25 04:29:48;;;;;;;2.50;1.13;;;21.60;99.90;;;;;;5092718;28;20206;-70
2022/07/25 04:32:18;;;;;;;5.90;0.80;;;21.40;99.90;;;;;;5092543;28;20265;-69
2022/07/25 04:34:45;;;;;;;1.33;1.17;;;21.40;99.90;;;;;;5092838;28;20186;-69
2022/07/25 04:37:12;;;;;;;2.30;0.90;;;21.40;99.90;;;;;;5092719;28;20198;-71
2022/07/25 04:39:40;;;;;;;3.67;0.70;;;21.50;99.90;;;;;;5092557;28;20201;-71
2022/07/25 04:42:07;;;;;;;1.33;0.60;;;21.20;99.90;;;;;;5092849;28;20175;-71
2022/07/25 04:44:34;;;;;;;2.57;1.10;;;21.30;99.90;;;;;;5091469;28;20183;-69
2022/07/25 04:47:01;;;;;;;3.27;1.00;;;21.10;99.90;;;;;;5072189;28;20176;-71
2022/07/25 04:49:29;;;;;;;2.50;0.90;;;21.10;99.90;;;;;;5087960;28;20539;-71
2022/07/25 04:51:56;;;;;;;1.57;0.93;;;20.80;99.90;;;;;;5091667;28;20225;-70
2022/07/25 04:54:24;;;;;;;5.23;0.63;;;20.90;99.90;;;;;;5092679;28;20171;-70
2022/07/25 04:56:51;;;;;;;4.23;1.00;;;20.80;99.90;;;;;;5092543;28;20170;-69
2022/07/25 04:59:21;;;;;;;1.90;0.70;;;21.00;99.90;;;;;;5092375;28;20266;-69
2022/07/25 05:01:48;;;;;;;1.63;0.73;;;20.80;99.90;;;;;;5091848;28;20268;-70
2022/07/25 05:04:16;;;;;;;2.60;0.93;;;20.40;99.90;;;;;;5091961;28;20209;-70
2022/07/25 05:06:43;;;;;;;5.23;3.17;;;19.70;99.90;;;;;;5108074;28;20614;-70
2022/07/25 05:09:10;;;;;;;3.93;3.03;;;19.40;99.90;;;;;;5092391;28;20207;-69
2022/07/25 05:11:40;;;;;;;2.47;0.80;;;19.40;99.90;;;;;;5092068;28;20207;-71
2022/07/25 05:14:08;;;;;;;1.60;0.60;;;19.40;99.90;;;;;;5092602;28;20262;-70
2022/07/25 05:16:35;;;;;;;1.33;0.60;;;19.30;99.90;;;;;;5091105;28;20650;-69
2022/07/25 05:19:02;;;;;;;2.63;1.57;;;19.20;99.90;;;;;;5082693;28;20195;-70
2022/07/25 05:21:32;;;;;;;1.93;0.80;;;19.10;99.90;;;;;;5092325;28;20178;-70
2022/07/25 05:24:00;;;;;;;6.03;3.10;;;18.90;99.90;;;;;;5073724;28;20681;-71
2022/07/25 05:26:28;;;;;;;3.60;1.30;;;18.90;99.90;;;;;;5091896;28;20171;-70
2022/07/25 05:28:58;;;;;;;1.83;1.43;;;18.90;99.90;;;;;;5091737;28;20183;-69
2022/07/25 05:31:27;;;;;;;1.57;1.00;;;19.00;99.90;;;;;;5091420;28;20226;-70
2022/07/25 05:33:56;;;;;;;6.90;3.40;;;18.90;99.90;;;;;;5091496;28;20203;-72
2022/07/25 05:36:25;;;;;;;3.27;2.03;;;19.00;99.90;;;;;;5072073;28;20191;-71
2022/07/25 05:38:59;;;;;;;2.17;1.30;;;19.00;99.90;;;;;;5080469;28;20190;-71
2022/07/25 05:41:29;;;;;;;4.13;1.30;;;18.90;99.90;;;;;;5074317;28;20626;-71
2022/07/25 05:43:59;;;;;;;2.43;1.50;;;18.80;99.90;;;;;;5073714;28;20190;-71
2022/07/25 05:46:28;;;;;;;7.67;3.20;;;18.80;99.90;;;;;;5073726;28;20184;-70
2022/07/25 05:48:57;;;;;;;4.80;2.37;;;18.90;99.90;;;;;;5092150;28;20176;-68
2022/07/25 05:51:25;;;;;;;7.33;4.00;;;19.00;99.90;;;;;;5092147;28;20180;-69
2022/07/25 05:53:52;;;;;;;1.87;1.00;;;19.10;99.90;;;;;;5073909;28;20658;-70
2022/07/25 05:56:20;;;;;;;2.70;1.33;;;19.10;99.90;;;;;;5073672;28;20273;-70
2022/07/25 05:58:48;;;;;;;1.97;1.00;;;19.10;99.90;;;;;;5091979;28;20296;-71
2022/07/25 06:01:19;;;;;;;10.13;4.30;;;19.00;99.90;;;;;;5091410;28;20237;-74
2022/07/25 06:03:46;;;;;;;1.53;0.70;;;18.90;99.90;;;;;;5091018;28;20213;-72
2022/07/25 06:06:13;;;;;;;0.77;0.60;;;18.80;99.90;;;;;;5091769;28;20175;-71
2022/07/25 06:08:41;;;;;;;4.80;0.70;;;18.70;99.90;;;;;;5091084;28;20183;-71
2022/07/25 06:11:08;;;;;;;2.37;0.57;;;18.60;99.90;;;;;;5091176;28;20226;-70
2022/07/25 06:13:35;;;;;;;2.23;0.70;;;18.40;99.90;;;;;;5091311;28;20187;-71
2022/07/25 06:16:03;;;;;;;5.87;0.87;;;18.30;99.90;;;;;;5091064;28;20190;-70
2022/07/25 06:18:31;;;;;;;2.60;0.70;;;18.30;99.90;;;;;;5090954;28;20646;-70
2022/07/25 06:20:58;;;;;;;5.50;1.20;;;18.10;99.90;;;;;;5091231;28;20542;-72
2022/07/25 06:23:26;;;;;;;3.33;1.00;;;18.00;99.90;;;;;;5091144;28;20171;-71
2022/07/25 06:25:53;;;;;;;5.50;1.70;;;17.90;99.90;;;;;;5091353;28;20553;-71
2022/07/25 06:28:21;;;;;;;2.73;0.87;;;17.80;99.90;;;;;;5090927;28;20187;-72
2022/07/25 06:30:48;;;;;;;4.97;1.10;;;17.70;99.90;;;;;;5090761;28;20237;-71
2022/07/25 06:33:15;;;;;;;2.60;1.00;;;17.60;99.90;;;;;;5091149;28;20224;-71
2022/07/25 06:35:44;;;;;;;1.43;0.80;;;17.50;99.90;;;;;;5091161;28;20197;-72
2022/07/25 06:38:11;;;;;;;2.23;1.13;;;17.40;99.90;;;;;;5091006;28;20527;-70
2022/07/25 06:40:38;;;;;;;4.20;1.10;;;17.40;99.90;;;;;;5073561;28;20184;-70
2022/07/25 06:43:06;;;;;;;3.30;1.20;;;17.30;99.90;;;;;;5094960;28;20190;-71
2022/07/25 06:45:35;;;;;;;6.63;1.30;;;17.30;99.90;;;;;;5095134;28;20180;-69
2022/07/25 06:48:03;;;;;;;3.60;1.00;;;17.20;99.90;;;;;;5076803;28;20195;-72
2022/07/25 06:50:33;;;;;;;3.27;1.30;;;17.10;99.90;;;;;;5094293;28;20620;-71
2022/07/25 06:53:01;;;;;;;1.67;1.40;;;17.00;99.90;;;;;;5094529;28;20257;-71
2022/07/25 06:55:28;;;;;;;4.87;1.60;;;17.10;99.90;;;;;;5094166;28;20180;-71
2022/07/25 06:57:57;;;;;;;2.70;1.60;;;17.00;99.90;;;;;;5094656;28;20540;-74
2022/07/25 07:00:24;;;;;;;2.50;1.03;;;16.90;99.90;;;;;;5094323;28;20183;-71
2022/07/25 07:02:57;;;;;;;1.83;1.23;;;16.90;99.90;;;;;;5094610;28;20619;-71
2022/07/25 07:05:35;;;;;;;4.07;1.10;;;16.70;99.90;;;;;;5075743;28;20187;-71
2022/07/25 07:08:05;;;;;;;2.50;1.10;;;16.60;99.90;;;;;;5108455;28;20299;-72
2022/07/25 07:10:33;;;;;;;2.63;1.00;;;16.40;99.90;;;;;;5094165;28;20244;-71
2022/07/25 07:13:09;;;;;;;2.20;0.80;;;16.20;99.90;;;;;;5094248;28;20681;-72
2022/07/25 07:15:37;;;;;;;1.57;0.80;;;16.10;99.90;;;;;;5093773;28;20190;-70
2022/07/25 07:18:05;;;;;;;4.83;1.00;;;16.00;99.90;;;;;;5094013;28;20561;-69
2022/07/25 07:20:33;;;;;;;1.73;0.80;;;15.90;99.90;;;;;;5094120;28;20183;-70
2022/07/25 07:23:01;;;;;;;2.97;1.07;;;15.80;99.90;;;;;;5109649;28;20204;-70
2022/07/25 07:25:29;;;;;;;2.63;1.00;;;15.60;99.90;;;;;;5093585;28;20187;-72
2022/07/25 07:28:01;;;;;;;4.57;0.93;;;15.50;99.90;;;;;;5093556;28;20190;-71
2022/07/25 07:30:29;;;;;;;1.70;0.90;;;15.40;99.90;;;;;;5093627;28;20215;-69
2022/07/25 07:32:57;;;;;;;1.93;0.83;;;15.20;99.90;;;;;;5093338;28;20249;-69
2022/07/25 07:35:24;;;;;;;4.10;1.00;;;15.10;99.90;;;;;;5093615;28;20167;-70
2022/07/25 07:37:52;;;;;;;1.87;0.70;;;15.10;99.90;;;;;;5093118;28;20180;-70
2022/07/25 07:40:19;;;;;;;3.40;0.90;;;14.90;99.90;;;;;;5098385;28;20534;-69
2022/07/25 07:42:49;;;;;;;1.87;0.97;;;14.80;99.90;;;;;;5102825;28;20173;-69
2022/07/25 07:45:22;;;;;;;2.30;1.07;;;14.70;99.90;;;;;;5093448;28;20632;-70
2022/07/25 07:47:51;;;;;;;2.47;1.00;;;14.60;99.90;;;;;;5093348;28;20185;-70
2022/07/25 07:50:23;;;;;;;5.30;1.07;;;14.50;99.90;;;;;;5075302;28;20657;-70
2022/07/25 07:52:51;;;;;;;2.83;1.90;;;14.40;99.90;;;;;;5092386;28;20218;-69
2022/07/25 07:58:06;;;;;;;6.07;1.70;;;14.40;99.90;;;;;;5099196;28;20252;-69
2022/07/25 08:00:38;;;;;;;4.13;2.10;;;14.40;99.90;;;;;;5106311;28;20175;-69
2022/07/25 08:03:11;;;;;;;4.17;2.10;;;14.40;99.90;;;;;;5075010;28;20188;-69
2022/07/25 08:05:42;;;;;;;4.87;3.10;;;14.30;99.90;;;;;;5100766;28;20173;-70
2022/07/25 08:08:12;;;;;;;3.70;2.43;;;14.30;99.90;;;;;;5103348;28;20551;-70
2022/07/25 08:10:42;;;;;;;3.90;2.30;;;14.20;99.90;;;;;;5092662;28;20565;-70
2022/07/25 08:13:19;;;;;;;6.83;2.30;;;14.30;99.90;;;;;;5092876;28;20201;-70
2022/07/25 08:15:54;;;;;;;3.40;1.90;;;14.30;99.90;;;;;;5093055;28;20186;-70
2022/07/25 08:18:22;;;;;;;3.70;1.90;;;14.20;99.90;;;;;;5092839;28;20191;-70
2022/07/25 08:20:51;;;;;;;7.30;3.80;;;14.20;99.90;;;;;;5074760;28;20195;-70
2022/07/25 08:23:19;;;;;;;12.03;6.57;;;14.20;99.90;;;;;;5108277;28;20183;-70
2022/07/25 08:25:50;;;;;;;7.70;4.60;;;14.20;99.90;;;;;;5092350;28;20198;-70
2022/07/25 08:28:17;;;;;;;8.47;4.60;;;14.10;99.90;;;;;;5106252;28;20195;-70
2022/07/25 08:30:45;;;;;;;6.80;3.70;;;14.00;99.90;;;;;;5092274;28;20238;-71
2022/07/25 08:33:16;;;;;;;6.73;3.70;;;14.00;99.90;;;;;;5092251;28;20218;-69
2022/07/25 08:35:53;;;;;;;4.07;2.43;;;13.90;99.90;;;;;;5092265;28;20186;-69
2022/07/25 08:38:22;;;;;;;7.90;3.63;;;13.90;99.90;;;;;;5092524;28;20178;-70
2022/07/25 08:40:52;;;;;;;3.60;2.60;;;13.90;99.90;;;;;;5096935;28;20187;-70
2022/07/25 08:43:20;;;;;;;5.63;2.70;;;13.90;99.90;;;;;;5076820;28;20194;-71
2022/07/25 08:45:48;;;;;;;6.10;3.50;;;13.90;99.90;;;;;;5092349;28;20184;-69
2022/07/25 08:48:21;;;;;;;4.23;3.00;;;13.90;99.90;;;;;;5092215;28;20190;-70
2022/07/25 08:50:50;;;;;;;4.50;2.73;;;13.90;99.90;;;;;;5091965;28;20180;-70
2022/07/25 08:53:19;;;;;;;6.30;4.03;;;13.80;99.90;;;;;;5093922;28;20352;-69
2022/07/25 08:55:47;;;;;;;10.43;3.90;;;13.80;99.90;;;;;;5074059;28;20274;-71
2022/07/25 08:58:16;;;;;;;10.97;6.67;;;13.80;99.90;;;;;;5092180;28;20229;-70
2022/07/25 09:00:44;;;;;;;8.77;4.17;;;13.80;99.90;;;;;;5092220;28;20175;-70
2022/07/25 09:03:12;;;;;;;6.40;4.80;;;13.80;99.90;;;;;;5094263;28;20182;-71
2022/07/25 09:05:41;;;;;;;8.80;4.80;;;13.80;99.90;;;;;;5091840;28;20216;-70
2022/07/25 09:08:12;;;;;;;9.17;4.63;;;13.70;99.90;;;;;;5092111;28;20179;-70
2022/07/25 09:10:46;;;;;;;6.90;3.97;;;13.70;99.90;;;;;;5092227;28;20182;-70
2022/07/25 09:13:15;;;;;;;11.33;4.57;;;13.60;99.90;;;;;;5091777;28;20300;-70
2022/07/25 09:15:52;;;;;;;5.77;3.63;;;13.60;99.90;;;;;;5091647;28;20232;-69
2022/07/25 09:18:25;;;;;;;11.60;4.20;;;13.60;99.90;;;;;;5091832;28;20202;-70
2022/07/25 09:20:54;;;;;;;10.97;4.10;;;13.60;99.90;;;;;;5073542;28;20543;-70
2022/07/25 09:23:34;;;;;;;8.03;4.37;;;13.60;99.90;;;;;;5091536;28;20187;-71
2022/07/25 09:26:13;;;;;;;7.53;4.30;;;13.60;99.90;;;;;;5091772;28;20171;-71
2022/07/25 09:28:51;;;;;;;6.17;4.07;;;13.60;99.90;;;;;;5091812;28;20174;-69
2022/07/25 09:31:18;;;;;;;10.17;4.47;;;13.60;99.90;;;;;;5073670;28;20226;-70
2022/07/25 09:33:55;;;;;;;10.10;4.43;;;13.60;99.90;;;;;;5092719;28;20577;-71
2022/07/25 09:36:26;;;;;;;14.87;5.37;;;13.70;99.90;;;;;;5092858;28;20204;-71
2022/07/25 09:39:04;;;;;;;8.60;4.93;;;13.60;99.90;;;;;;5093074;28;20193;-71
2022/07/25 09:41:35;;;;;;;12.73;5.50;;;13.60;99.90;;;;;;5092903;28;20185;-71
2022/07/25 09:44:06;;;;;;;7.47;5.87;;;13.70;99.90;;;;;;5092904;28;20236;-70
2022/07/25 09:46:33;;;;;;;10.70;5.13;;;13.70;99.90;;;;;;5093066;28;20176;-71
2022/07/25 09:49:01;;;;;;;10.60;4.93;;;13.60;99.90;;;;;;5092806;28;20178;-69
2022/07/25 09:51:33;;;;;;;10.63;5.13;;;13.50;99.90;;;;;;5092925;28;20524;-71
2022/07/25 09:54:02;;;;;;;8.60;4.43;;;13.30;99.90;;;;;;5093120;28;20235;-70
2022/07/25 09:56:31;;;;;;;14.07;5.17;;;13.30;99.90;;;;;;5095585;28;20182;-70
2022/07/25 09:59:00;;;;;;;10.97;4.60;;;13.20;99.90;;;;;;5093214;28;20186;-71
2022/07/25 10:01:34;;;;;;;9.03;4.47;;;13.20;99.90;;;;;;5093143;28;20174;-71
2022/07/25 10:04:20;;;;;;;6.77;4.30;;;13.10;99.90;;;;;;5093195;28;20216;-71
2022/07/25 10:07:13;;;;;;;7.90;4.60;;;13.00;99.90;;;;;;5093103;28;20583;-71
2022/07/25 10:09:53;;;;;;;12.93;5.30;;;13.00;99.90;;;;;;5092130;28;20182;-70
2022/07/25 10:12:23;;;;;;;8.30;4.80;;;12.90;99.90;;;;;;5092886;28;20727;-71
2022/07/25 10:15:05;;;;;;;9.37;4.67;;;12.80;99.90;;;;;;5109099;28;20681;-71
2022/07/25 10:17:34;;;;;;;10.03;4.70;;;12.70;99.90;;;;;;5097031;28;20212;-71
2022/07/25 10:20:03;;;;;;;6.40;4.23;;;12.60;99.90;;;;;;5096881;28;20185;-71
2022/07/25 10:22:46;;;;;;;12.07;4.73;;;12.50;99.90;;;;;;5096651;28;20190;-70
2022/07/25 10:25:20;;;;;;;9.37;4.90;;;12.40;99.90;;;;;;5096940;28;20177;-70
2022/07/25 10:27:59;;;;;;;8.60;4.30;;;12.40;99.90;;;;;;5096632;28;20519;-70
2022/07/25 10:30:39;;;;;;;7.27;4.33;;;12.30;99.90;;;;;;5096227;28;20311;-70
2022/07/25 10:33:20;;;;;;;11.90;4.70;;;12.20;99.90;;;;;;5107736;28;20218;-69
2022/07/25 10:35:48;;;;;;;9.90;4.53;;;12.10;99.90;;;;;;5096395;28;20265;-71
2022/07/25 10:38:25;;;;;;;17.60;4.77;;;12.10;99.90;;;;;;5096447;28;20525;-70
2022/07/25 10:40:53;;;;;;;7.27;4.73;;;12.00;99.90;;;;;;5078645;28;20732;-70
2022/07/25 10:43:25;;;;;;;12.80;5.77;;;12.00;99.90;;;;;;5078139;28;20193;-70
2022/07/25 10:45:58;;;;;;;11.10;4.90;;;12.10;99.90;;;;;;5096045;28;20541;-70
2022/07/25 10:48:32;;;;;;;11.13;6.13;;;12.20;99.90;;;;;;5096256;28;20197;-70
2022/07/25 10:51:02;;;;;;;11.43;6.00;;;12.20;99.90;;;;;;5096093;28;20526;-71
2022/07/25 10:53:46;;;;;;;14.20;5.77;;;12.20;99.90;;;;;;5095774;28;20258;-70
2022/07/25 10:56:18;;;;;;;14.53;6.37;;;12.10;99.90;;;;;;5096181;28;20185;-70
2022/07/25 10:58:57;;;;;;;11.67;6.60;;;12.10;99.90;;;;;;5096003;28;20188;-70
2022/07/25 11:01:33;;;;;;;10.00;6.33;;;12.10;99.90;;;;;;5096145;28;20197;-70
2022/07/25 11:04:07;;;;;;;14.70;7.27;;;12.00;99.90;;;;;;5096317;28;20182;-70
2022/07/25 11:06:40;;;;;;;13.87;6.53;;;11.90;99.90;;;;;;5098573;28;20510;-70
2022/07/25 11:09:19;;;;;;;16.40;7.10;;;11.80;99.90;;;;;;5104061;28;20267;-70
2022/07/25 11:11:49;;;;;;;10.47;6.57;;;11.70;99.90;;;;;;5079939;28;20678;-69
2022/07/25 11:14:25;;;;;;;13.30;7.20;;;11.60;99.90;;;;;;5100529;28;20222;-70
2022/07/25 11:16:54;;;;;;;14.33;8.60;;;11.60;99.90;;;;;;5110973;28;20181;-70
2022/07/25 11:19:22;;;;;;;13.30;7.77;;;11.50;99.90;;;;;;5116311;28;20176;-70
2022/07/25 11:22:00;;;;;;;11.50;7.97;;;11.50;99.90;;;;;;5110174;28;20174;-70
2022/07/25 11:24:41;;;;;;;14.10;9.10;;;11.50;99.90;;;;;;5078041;28;20246;-70
2022/07/25 11:27:33;;;;;;;18.97;11.73;;;11.40;99.90;;;;;;5076692;28;20180;-68
2022/07/25 11:30:18;;;;;;;15.70;9.13;;;11.40;99.90;;;;;;5067317;28;20203;-71
2022/07/25 11:32:52;;;;;;;13.63;9.07;;;11.30;99.90;;;;;;5087819;28;20239;-70
2022/07/25 11:35:30;;;;;;;12.60;8.30;;;11.20;99.90;;;;;;5095718;28;20172;-70
2022/07/25 11:38:01;;;;;;;12.20;8.53;;;11.20;99.90;;;;;;5060421;28;20180;-69
2022/07/25 11:40:31;;;;;;;16.07;9.13;;;11.20;99.90;;;;;;5077748;28;20180;-71
2022/07/25 11:42:59;;;;;;;13.87;8.40;;;11.10;99.90;;;;;;5076874;28;20206;-71
2022/07/25 11:45:35;;;;;;;12.80;8.90;;;11.10;99.90;;;;;;5095402;28;20654;-69
2022/07/25 11:48:12;;;;;;;16.00;8.03;;;11.00;99.90;;;;;;5095286;28;20185;-70
2022/07/25 11:50:44;;;;;;;12.83;8.37;;;11.10;99.90;;;;;;5094696;28;20198;-69
2022/07/25 11:53:13;;;;;;;17.03;8.43;;;11.10;99.90;;;;;;5074848;28;20307;-70
2022/07/25 11:55:42;;;;;;;16.13;8.23;;;11.10;99.90;;;;;;5074892;28;20561;-69
2022/07/25 11:58:14;;;;;;;18.33;9.40;;;11.10;99.90;;;;;;5056891;28;20549;-71
2022/07/25 12:00:45;;;;;;;18.23;8.67;;;11.00;99.90;;;;;;5094683;28;20171;-70
2022/07/25 12:03:17;;;;;;;13.50;9.17;;;11.00;99.90;;;;;;5094388;28;20207;-71
2022/07/25 12:05:48;;;;;;;13.27;8.20;;;11.10;99.90;;;;;;5094689;28;20187;-70
2022/07/25 12:08:18;;;;;;;19.30;10.27;;;11.10;99.90;;;;;;5095438;28;20246;-70
2022/07/25 12:10:47;;;;;;;17.20;9.63;;;11.10;99.90;;;;;;5075171;28;20224;-71
2022/07/25 12:13:30;;;;;;;18.90;12.30;;;11.00;99.90;;;;;;5094108;28;20681;-69
2022/07/25 12:16:00;;;;;;;18.80;11.87;;;11.00;99.90;;;;;;5093768;28;20195;-71
2022/07/25 12:18:29;;;;;;;20.40;11.33;;;11.00;99.90;;;;;;5074269;28;20185;-70
2022/07/25 12:20:57;;;;;;;22.63;11.90;;;10.90;99.90;;;;;;5074224;28;20178;-70
2022/07/25 12:23:27;;;;;;;20.53;11.43;;;10.90;99.90;;;;;;5073910;28;20185;-70
2022/07/25 12:25:54;;;;;;;22.50;12.63;;;10.90;99.90;;;;;;5074158;28;20185;-70
2022/07/25 12:28:22;;;;;;;20.60;12.00;;;10.90;99.90;;;;;;5074725;28;20625;-69
2022/07/25 12:30:52;;;;;;;20.53;12.43;;;10.90;99.90;;;;;;5073817;28;20234;-70
2022/07/25 12:33:19;;;;;;;22.33;12.40;;;10.80;99.90;;;;;;5093862;28;20552;-70
2022/07/25 12:35:47;;;;;;;25.43;14.00;;;10.80;99.90;;;;;;5094093;28;20183;-70
2022/07/25 12:38:14;;;;;;;18.40;11.93;;;10.80;99.90;;;;;;5093405;28;20184;-70
2022/07/25 12:40:44;;;;;;;25.43;15.57;;;10.70;99.90;;;;;;5094030;28;20206;-71
2022/07/25 12:43:13;;;;;;;72.07;39.77;;;10.70;99.90;;;;;;5075539;28;20188;-71
2022/07/25 12:45:41;;;;;;;39.03;22.63;;;10.70;99.90;;;;;;5109915;28;20184;-70
2022/07/25 12:48:16;;;;;;;26.57;16.40;;;10.70;99.90;;;;;;5075535;28;20180;-69
2022/07/25 12:50:44;;;;;;;22.67;15.07;;;10.70;99.90;;;;;;5093911;28;20192;-70
2022/07/25 12:53:15;;;;;;;24.97;14.77;;;10.70;99.90;;;;;;5093645;28;20219;-70
2022/07/25 12:55:42;;;;;;;22.30;13.63;;;10.70;99.90;;;;;;5093927;28;20585;-70
2022/07/25 12:58:11;;;;;;;24.40;14.07;;;10.70;99.90;;;;;;5094095;28;20181;-70